Latest Weather Observations for Parndana

IDS60801

Issued at 8:31 pm CDT Friday 27 March 2015 (issued every 30 minutes, with the page automatically refreshed every 10 minutes)

About weather observations | Map of weather stations | Latest weather observations for SA | Other Formats
Station Details ID: 022843 Name: PARNDANA CFS AWS Lat: -35.79 Lon: 137.25 Height: 165.0 m
Data from the previous 72 hours. | See also: Recent months at Parndana
Date/Time
CDT
Temp
°C
App
Temp
°C
Dew
Point
Rel
Hum
%
Delta-T
°C
Wind Press
QNH
hPa
Press
MSL
hPa
Rain
since 9 am
mm
Dir
 
Spd
km/h
Gust
km/h
Spd
kts
Gust
kts
27/08:30pm 12.5 11.4 10.7 89 0.9 S 7 11 4 6 - - 0.2
27/08:00pm 13.0 11.2 10.9 87 1.1 S 11 13 6 7 - - 0.2
27/07:30pm 13.5 11.1 9.9 79 1.9 S 13 17 7 9 - - 0.2
27/07:00pm 14.0 11.2 10.0 77 2.1 SSE 15 19 8 10 - - 0.2
27/06:30pm 15.1 11.9 10.1 72 2.6 S 17 22 9 12 - - 0.2
27/06:00pm 15.4 12.2 10.0 70 2.8 SSE 17 20 9 11 - - 0.2
27/05:30pm 15.8 12.6 9.9 68 3.1 SSW 17 24 9 13 - - 0.2
27/05:00pm 16.0 12.8 9.9 67 3.2 S 17 22 9 12 - - 0.2
27/04:30pm 16.5 13.1 10.4 67 3.3 S 19 24 10 13 - - 0.2
27/04:00pm 16.1 13.0 10.2 68 3.1 SSE 17 20 9 11 - - 0.2
27/03:30pm 16.0 12.6 10.5 70 2.9 SSW 19 26 10 14 - - 0.2
27/03:00pm 16.4 13.8 9.3 63 3.7 S 13 19 7 10 - - 0.2
27/02:30pm 16.2 13.9 10.3 68 3.1 S 13 19 7 10 - - 0.2
27/02:00pm 16.2 13.9 10.3 68 3.1 SSW 13 20 7 11 - - 0.2
27/01:30pm 15.1 11.9 11.3 78 2.0 SSW 19 24 10 13 - - 0.2
27/01:00pm 15.3 13.1 10.9 75 2.4 SSE 13 19 7 10 - - 0.0
27/12:30pm 14.9 12.1 11.5 80 1.8 S 17 26 9 14 - - 0.0
27/12:00pm 13.1 10.3 11.5 90 0.9 SSW 17 22 9 12 - - 0.0
27/11:30am 15.0 13.9 10.6 75 2.3 SW 7 13 4 7 - - 0.0
27/11:00am 13.7 11.7 11.4 86 1.2 WSW 13 19 7 10 - - 0.0
27/10:30am 13.9 12.8 11.8 87 1.1 SW 9 13 5 7 - - 0.0
27/10:00am 12.5 12.6 11.6 94 0.5 WSW 2 6 1 3 - - 0.0
27/09:30am 11.6 11.1 10.7 94 0.5 W 4 6 2 3 - - 0.0
27/09:00am 11.1 11.2 10.2 94 0.5 CALM 0 2 0 1 - - 0.2
27/08:30am 10.5 10.5 9.9 96 0.3 CALM 0 0 0 0 - - 0.2
27/08:00am 10.4 9.1 9.8 96 0.3 W 7 13 4 7 - - 0.2
27/07:30am 10.1 8.7 9.5 96 0.3 SSW 7 9 4 5 - - 0.2
27/07:00am 9.7 8.7 8.8 94 0.4 SW 4 6 2 3 - - 0.0
27/06:30am 10.5 8.4 9.7 95 0.4 SW 11 17 6 9 - - 0.0
27/06:00am 9.8 8.2 8.7 93 0.5 W 7 9 4 5 - - 0.0
27/05:30am 9.9 7.9 8.7 92 0.6 WSW 9 11 5 6 - - 0.0
27/05:00am 10.7 9.0 9.8 94 0.5 SSW 9 13 5 7 - - 0.0
27/04:30am 10.8 8.8 8.7 87 1.0 SW 9 11 5 6 - - 0.0
27/04:00am 10.9 9.1 9.5 91 0.7 WSW 9 11 5 6 - - 0.0
27/03:30am 10.4 9.0 9.5 94 0.5 W 7 7 4 4 - - 0.0
27/03:00am 10.8 10.0 9.6 92 0.6 WSW 4 6 2 3 - - 0.0
27/02:30am 11.0 9.8 9.6 91 0.7 W 6 9 3 5 - - 0.0
27/02:00am 11.2 9.0 9.5 89 0.9 W 11 20 6 11 - - 0.0
27/01:30am 11.4 9.6 9.3 87 1.1 WSW 9 13 5 7 - - 0.0
27/01:00am 11.6 9.0 9.2 85 1.2 SW 13 17 7 9 - - 0.0
27/12:30am 11.4 9.6 9.3 87 1.1 SW 9 11 5 6 - - 0.0
27/12:00am 12.0 8.7 7.9 76 2.0 SW 15 20 8 11 - - 0.0
 
Date/Time
CDT
Temp
°C
App
Temp
°C
Dew
Point
Rel
Hum
%
Delta-T
°C
Wind Press
QNH
hPa
Press
MSL
hPa
Rain
since 9 am
mm
Dir
 
Spd
km/h
Gust
km/h
Spd
kts
Gust
kts
26/11:30pm 11.6 9.5 8.3 80 1.6 WSW 9 11 5 6 - - 0.0
26/11:00pm 11.2 8.8 8.6 84 1.3 WSW 11 15 6 8 - - 0.0
26/10:30pm 10.9 8.9 8.8 87 1.0 WSW 9 11 5 6 - - 0.0
26/10:00pm 10.9 7.5 9.2 89 0.9 SSW 17 24 9 13 - - 0.0
26/09:30pm 12.0 8.6 7.7 75 2.1 WSW 15 19 8 10 - - 0.0
26/09:00pm 12.0 9.3 7.5 74 2.2 W 11 15 6 8 - - 0.0
26/08:30pm 12.1 9.4 7.4 73 2.3 W 11 17 6 9 - - 0.0
26/08:00pm 12.6 10.1 6.4 66 3.0 SW 9 15 5 8 - - 0.0
26/07:30pm 12.7 9.5 7.0 68 2.8 SW 13 17 7 9 - - 0.0
26/07:00pm 12.9 9.2 6.3 64 3.2 WSW 15 19 8 10 - - 0.0
26/06:30pm 13.1 9.0 6.2 63 3.3 SW 17 24 9 13 - - 0.0
26/06:00pm 13.4 8.8 5.8 60 3.6 SSW 19 30 10 16 - - 0.0
26/05:30pm 13.9 8.5 4.5 53 4.4 SW 22 32 12 17 - - 0.0
26/05:00pm 13.4 8.3 6.0 61 3.5 SW 22 32 12 17 - - 0.0
26/04:30pm 13.7 8.2 6.1 60 3.7 SW 24 33 13 18 - - 0.0
26/04:00pm 14.9 8.8 4.9 51 4.7 SSW 26 35 14 19 - - 0.0
26/03:30pm 13.8 6.6 5.7 58 3.9 SW 33 43 18 23 - - 0.0
26/03:00pm 15.9 9.3 4.3 46 5.5 SW 28 41 15 22 - - 0.0
26/02:30pm 14.7 7.6 5.5 54 4.4 SSW 32 43 17 23 - - 0.0
26/02:00pm 16.4 9.1 2.4 39 6.4 SW 30 43 16 23 - - 0.0
26/01:30pm 15.9 9.4 4.6 47 5.3 SW 28 41 15 22 - - 0.0
26/01:00pm 14.4 7.7 5.5 55 4.2 SW 30 41 16 22 - - 0.0
26/12:30pm 15.3 9.4 5.8 53 4.6 SW 26 41 14 22 - - 0.0
26/12:00pm 14.3 7.5 7.1 62 3.5 SW 32 44 17 24 - - 0.0
26/11:30am 14.2 7.5 5.6 56 4.1 SSW 30 44 16 24 - - 0.0
26/11:00am 12.7 8.1 8.2 74 2.2 SSW 22 30 12 16 - - 0.0
26/10:30am 14.2 7.7 6.3 59 3.8 SW 30 43 16 23 - - 0.0
26/10:00am 12.7 6.0 5.4 61 3.4 SW 30 41 16 22 - - 0.0
26/09:30am 12.7 6.3 5.4 61 3.4 SW 28 41 15 22 - - 0.0
26/09:29am 12.9 6.5 5.3 60 3.6 SW 28 41 15 22 - - 0.0
26/09:00am 12.0 8.3 6.3 68 2.7 SW 15 22 8 12 - - 2.8
26/08:30am 10.5 6.7 5.7 72 2.2 SW 15 17 8 9 - - 2.8
26/08:00am 9.5 5.5 4.9 73 2.1 WSW 15 20 8 11 - - 2.8
26/07:30am 8.8 4.7 4.4 74 2.0 SW 15 19 8 10 - - 2.8
26/07:00am 8.6 4.7 5.4 80 1.5 SW 15 19 8 10 - - 2.8
26/06:30am 9.3 4.5 5.7 78 1.7 SW 20 33 11 18 - - 2.8
26/06:00am 9.2 4.7 4.0 70 2.3 SW 17 24 9 13 - - 2.8
26/05:30am 9.3 4.1 3.7 68 2.5 SW 20 32 11 17 - - 2.8
26/05:00am 7.6 3.8 3.8 77 1.6 WSW 13 17 7 9 - - 2.8
26/04:30am 8.2 4.2 4.8 79 1.5 WSW 15 17 8 9 - - 2.8
26/04:00am 8.3 3.9 4.5 77 1.7 W 17 22 9 12 - - 2.8
26/03:30am 8.8 5.1 4.2 73 2.0 WSW 13 15 7 8 - - 2.8
26/03:00am 9.6 4.8 4.4 70 2.3 WSW 19 24 10 13 - - 2.8
26/02:30am 8.7 4.6 4.3 74 1.9 WSW 15 20 8 11 - - 2.8
26/02:00am 8.7 5.1 4.9 77 1.7 WSW 13 17 7 9 - - 2.8
26/01:30am 9.8 5.7 4.6 70 2.3 WSW 15 20 8 11 - - 2.8
26/01:00am 8.7 4.9 6.0 83 1.2 SW 15 20 8 11 - - 2.8
26/12:30am 9.7 5.6 4.3 69 2.4 SW 15 22 8 12 - - 2.8
26/12:00am 9.8 5.3 4.2 68 2.5 WSW 17 26 9 14 - - 2.8
 
Date/Time
CDT
Temp
°C
App
Temp
°C
Dew
Point
Rel
Hum
%
Delta-T
°C
Wind Press
QNH
hPa
Press
MSL
hPa
Rain
since 9 am
mm
Dir
 
Spd
km/h
Gust
km/h
Spd
kts
Gust
kts
25/11:30pm 9.7 5.5 3.9 67 2.6 WSW 15 20 8 11 - - 2.8
25/11:00pm 9.7 5.6 4.1 68 2.5 SW 15 20 8 11 - - 2.8
25/10:30pm 9.8 6.1 4.4 69 2.4 WSW 13 20 7 11 - - 2.8
25/10:00pm 10.1 5.6 4.3 67 2.6 WSW 17 22 9 12 - - 2.8
25/09:30pm 10.7 6.2 4.0 63 3.0 WSW 17 22 9 12 - - 2.8
25/09:00pm 10.8 5.8 3.8 62 3.1 WSW 19 24 10 13 - - 2.8
25/08:30pm 10.7 5.9 4.4 65 2.8 SW 19 30 10 16 - - 2.8
25/08:00pm 11.2 6.3 4.0 61 3.2 WSW 19 26 10 14 - - 2.8
25/07:30pm 11.3 6.0 5.2 66 2.8 SW 22 30 12 16 - - 2.8
25/07:00pm 11.9 5.5 5.3 64 3.1 SW 28 43 15 23 - - 2.8
25/06:30pm 12.8 7.3 5.9 63 3.3 WSW 24 35 13 19 - - 2.8
25/06:00pm 13.3 5.6 5.5 59 3.7 SW 35 54 19 29 - - 2.6
25/05:31pm 13.4 7.6 8.0 70 2.7 SW 28 52 15 28 - - 2.6
25/05:30pm 13.6 8.5 9.1 74 2.3 SW 26 37 14 20 - - 2.6
25/05:00pm 11.9 7.8 10.0 88 1.0 SW 22 35 12 19 - - 2.6
25/04:30pm 11.4 5.4 10.0 91 0.7 WSW 32 46 17 25 - - 2.6
25/04:00pm 12.0 6.0 10.7 92 0.7 SW 33 54 18 29 - - 2.4
25/03:59pm 12.1 6.3 10.8 92 0.7 SW 32 54 17 29 - - 2.4
25/03:30pm 13.1 8.0 11.8 92 0.7 SW 30 41 16 22 - - 2.0
25/03:00pm 13.7 8.3 12.1 90 0.9 W 32 41 17 22 - - 1.0
25/02:58pm 14.0 8.4 12.0 88 1.1 W 33 46 18 25 - - 0.6
25/02:30pm 14.8 8.0 11.9 83 1.6 WNW 39 61 21 33 - - 0.2
25/02:25pm 14.9 7.9 11.1 78 2.0 NW 39 61 21 33 - - 0.0
25/02:00pm 16.6 10.7 11.3 71 2.9 NW 33 44 18 24 - - 0.0
25/01:45pm 16.1 10.4 11.7 75 2.4 NW 33 56 18 30 - - 0.0
25/01:30pm 15.4 9.1 11.0 75 2.4 NW 35 52 19 28 - - 0.0
25/01:26pm 16.1 10.2 10.6 70 2.9 NW 32 50 17 27 - - 0.0
25/01:00pm 15.9 8.5 10.0 68 3.1 NW 39 52 21 28 - - 0.0
25/12:42pm 17.8 11.2 9.9 60 4.2 NW 35 54 19 29 - - 0.0
25/12:30pm 16.4 10.6 10.7 69 3.1 NW 32 44 17 24 - - 0.0
25/12:11pm 16.8 9.6 9.2 61 4.0 NW 37 56 20 30 - - 0.0
25/12:00pm 16.8 9.7 9.7 63 3.7 NW 37 52 20 28 - - 0.0
25/11:30am 17.1 11.2 9.0 59 4.2 NW 30 41 16 22 - - 0.0
25/11:00am 16.7 10.4 9.1 61 4.0 NW 32 43 17 23 - - 0.0
25/10:30am 15.5 9.9 10.1 70 2.9 NW 30 39 16 21 - - 0.0
25/10:00am 13.1 9.2 10.8 86 1.2 NW 22 32 12 17 - - 0.0
25/09:30am 14.2 9.5 9.2 72 2.6 NW 24 37 13 20 - - 0.0
25/09:00am 14.4 11.7 7.2 62 3.6 NW 11 15 6 8 - - 0.2
25/08:30am 12.6 10.2 6.9 68 2.8 NW 9 13 5 7 - - 0.2
25/08:00am 11.2 8.9 5.9 70 2.5 NNW 7 9 4 5 - - 0.2
25/07:30am 11.1 8.4 5.4 68 2.6 NNW 9 11 5 6 - - 0.2
25/07:00am 11.4 9.1 5.7 68 2.7 NNW 7 11 4 6 - - 0.2
25/06:30am 10.6 8.0 4.3 65 2.8 NNW 7 7 4 4 - - 0.2
25/06:00am 10.0 7.4 4.4 68 2.5 NNW 7 7 4 4 - - 0.2
25/05:30am 10.1 7.3 3.4 63 2.9 NNW 7 9 4 5 - - 0.2
25/05:00am 9.5 6.8 3.9 68 2.5 NW 7 7 4 4 - - 0.2
25/04:30am 10.1 7.7 4.3 67 2.6 NNW 6 7 3 4 - - 0.2
25/04:00am 10.5 8.0 4.9 68 2.6 N 7 9 4 5 - - 0.2
25/03:30am 10.3 8.0 4.9 69 2.5 NNW 6 7 3 4 - - 0.2
25/03:00am 10.0 7.5 5.0 71 2.3 N 7 7 4 4 - - 0.2
25/02:30am 9.8 7.9 5.0 72 2.2 NNW 4 6 2 3 - - 0.2
25/02:00am 9.8 7.3 5.0 72 2.2 W 7 9 4 5 - - 0.2
25/01:30am 10.0 7.5 5.0 71 2.3 NW 7 9 4 5 - - 0.2
25/01:00am 9.7 7.8 4.7 71 2.3 WSW 4 7 2 4 - - 0.2
25/12:30am 10.7 8.4 5.5 70 2.4 SW 7 9 4 5 - - 0.2
25/12:00am 10.2 7.9 5.6 73 2.1 W 7 9 4 5 - - 0.2
 
Date/Time
CDT
Temp
°C
App
Temp
°C
Dew
Point
Rel
Hum
%
Delta-T
°C
Wind Press
QNH
hPa
Press
MSL
hPa
Rain
since 9 am
mm
Dir
 
Spd
km/h
Gust
km/h
Spd
kts
Gust
kts
24/11:30pm 11.2 8.4 5.3 67 2.7 WNW 9 11 5 6 - - 0.2
24/11:00pm 11.7 9.3 4.2 60 3.4 WSW 6 13 3 7 - - 0.2
24/10:30pm 11.4 9.9 4.8 64 3.0 SW 2 4 1 2 - - 0.2
24/10:00pm 12.2 9.7 4.9 61 3.4 SSW 7 11 4 6 - - 0.2
24/09:30pm 12.8 10.3 5.0 59 3.6 SSW 7 9 4 5 - - 0.2
24/09:00pm 12.8 10.8 6.2 64 3.2 S 6 7 3 4 - - 0.2

Other Formats:

Comma delimited format used in spreadsheet applications
http://www.bom.gov.au/fwo/IDS60801/IDS60801.94807.axf

JavaScript Object Notation format (JSON) in row-major order
http://www.bom.gov.au/fwo/IDS60801/IDS60801.94807.json